Castello de la Plana, Spain
Current Conditions -  °F | °C
As of 8:00 AM on Thursday 23 Oct 2014 (Local Time) from LEBT Reporting Station
Clear Clear  
Wind Chill: 50°   Ceiling: Unl
Heat Index: 50°   Visibility: 6mi
Dew Point: 34°   Wind: 0mph
Humidity: 54%   Direction: NA
Pressure: 30.18"   Gusts: NA
Location:  39.98°N, 0.03°W
Report Text: LEBT 230600Z AUTO 00000KT CAVOK 10/01 Q1022
Loading
Personal Weather Stations






























Interactive Weather Map
Tropical Storm Tracking
New forecast layout! Learn more

10-Day Weather Forecast

Advertisements
Track Severe Weather on mobile